Howells, New York
Current Conditions -  °F | °C
As of 12:54 PM on Wednesday 28 Jan 2015 (Local Time) from KMGJ Reporting Station
Clear Clear  
Wind Chill: 22°   Ceiling: Unl
Heat Index: 31°   Visibility: 10mi
Dew Point:   Wind: 10mph
Humidity: 38%   Direction: 310°NW
Pressure: 30.03"   Gusts: 18mph
Location:  41.48°N, 74.47°W
Report Text: KMGJ 281754Z AUTO 31009G16KT 10SM CLR M01/M13 A3003 RMK AO2 SLP174 T10061133 11006 21089 51002 TSNO
Loading
Personal Weather Stations






























Interactive Weather Map New forecast layout! Learn more

10-Day Weather Forecast

Advertisements
Track Severe Weather on mobile